createdAt,value
2017-02-28T00:01:09.272Z,0
2017-02-28T00:02:23.730Z,0
2017-02-28T00:03:38.194Z,0
2017-02-28T00:04:52.649Z,0
2017-02-28T00:06:07.097Z,0
2017-02-28T00:07:21.576Z,0
2017-02-28T00:08:36.040Z,0
2017-02-28T00:09:50.522Z,0
2017-02-28T00:11:05.018Z,0
2017-02-28T00:12:18.817Z,0
2017-02-28T00:13:33.308Z,0
2017-02-28T00:14:47.194Z,0
2017-02-28T00:16:01.641Z,0
2017-02-28T00:17:16.088Z,0
2017-02-28T00:18:30.556Z,0
2017-02-28T00:19:45.000Z,0
2017-02-28T00:20:59.437Z,0
2017-02-28T00:22:13.892Z,0
2017-02-28T00:23:27.069Z,0
2017-02-28T00:24:40.873Z,0
2017-02-28T00:25:55.349Z,0
2017-02-28T00:27:09.804Z,0
2017-02-28T00:28:24.281Z,0
2017-02-28T00:29:38.770Z,0
2017-02-28T00:30:53.223Z,0
2017-02-28T00:32:07.684Z,0
2017-02-28T00:33:21.482Z,0
2017-02-28T00:34:35.954Z,0
2017-02-28T00:35:50.432Z,0
2017-02-28T00:37:04.896Z,0
2017-02-28T00:38:19.356Z,0
2017-02-28T00:39:33.196Z,0
2017-02-28T00:40:47.679Z,0
2017-02-28T00:42:02.133Z,0
2017-02-28T00:43:15.956Z,0
2017-02-28T00:44:30.454Z,0
2017-02-28T00:45:44.270Z,0
2017-02-28T00:46:58.704Z,0
2017-02-28T00:48:13.172Z,0
2017-02-28T00:49:26.979Z,0
2017-02-28T00:50:41.444Z,0
2017-02-28T00:51:55.884Z,0
2017-02-28T00:53:10.337Z,0
2017-02-28T00:54:24.849Z,0
2017-02-28T00:55:39.309Z,0
2017-02-28T00:56:53.791Z,0
2017-02-28T00:58:08.263Z,0
2017-02-28T00:59:22.074Z,0
2017-02-28T01:00:36.516Z,0
2017-02-28T01:01:50.967Z,0
2017-02-28T01:03:05.447Z,0
2017-02-28T01:04:19.926Z,0
2017-02-28T01:05:33.753Z,0
2017-02-28T01:06:48.190Z,0
2017-02-28T01:08:02.614Z,0
2017-02-28T01:09:16.428Z,0
2017-02-28T01:10:30.866Z,0
2017-02-28T01:11:45.292Z,0
2017-02-28T01:12:59.753Z,0
2017-02-28T01:14:14.246Z,0
2017-02-28T01:15:28.099Z,0
2017-02-28T01:16:42.620Z,0
2017-02-28T01:17:57.102Z,0
2017-02-28T01:19:11.612Z,0
2017-02-28T01:20:25.405Z,0
2017-02-28T01:21:39.852Z,0
2017-02-28T01:22:54.283Z,0
2017-02-28T01:24:08.108Z,0
2017-02-28T01:25:21.925Z,0
2017-02-28T01:26:36.371Z,0
2017-02-28T01:27:50.818Z,0
2017-02-28T01:29:05.287Z,0
2017-02-28T01:30:19.751Z,0
2017-02-28T01:31:34.195Z,0
2017-02-28T01:32:48.683Z,0
2017-02-28T01:34:02.489Z,0
2017-02-28T01:35:16.955Z,0
2017-02-28T01:36:31.409Z,0
2017-02-28T01:37:45.862Z,0
2017-02-28T01:39:00.333Z,0
2017-02-28T01:40:14.797Z,0
2017-02-28T01:41:28.602Z,0
2017-02-28T01:42:43.042Z,0
2017-02-28T01:43:57.540Z,0
2017-02-28T01:45:11.986Z,0
2017-02-28T01:46:25.166Z,0
2017-02-28T01:47:39.672Z,0
2017-02-28T01:48:54.166Z,0
2017-02-28T01:50:08.637Z,0
2017-02-28T01:51:22.466Z,0
2017-02-28T01:52:36.939Z,0
2017-02-28T01:53:51.428Z,0
2017-02-28T01:55:05.879Z,0
2017-02-28T01:56:20.380Z,0
2017-02-28T01:57:34.819Z,0
2017-02-28T01:58:49.316Z,0
2017-02-28T02:00:03.771Z,0
2017-02-28T02:01:18.255Z,0
2017-02-28T02:02:32.079Z,0
2017-02-28T02:03:46.527Z,0
2017-02-28T02:05:13.693Z,0
2017-02-28T02:06:27.453Z,0
2017-02-28T02:07:41.183Z,0
2017-02-28T02:08:55.573Z,0
2017-02-28T02:10:10.133Z,0
2017-02-28T02:11:24.632Z,0
2017-02-28T02:12:38.434Z,0
2017-02-28T02:13:52.944Z,0
2017-02-28T02:15:07.419Z,0
2017-02-28T02:16:21.857Z,0
2017-02-28T02:17:36.338Z,0
2017-02-28T02:18:50.847Z,0
2017-02-28T02:20:05.339Z,0
2017-02-28T02:21:19.865Z,0
2017-02-28T02:22:34.330Z,0
2017-02-28T02:23:48.780Z,0
2017-02-28T02:25:03.310Z,0
2017-02-28T02:26:17.925Z,0
2017-02-28T02:27:33.249Z,0
2017-02-28T02:28:47.695Z,0
2017-02-28T02:30:02.160Z,0
2017-02-28T02:31:15.994Z,0
2017-02-28T02:32:29.885Z,0
2017-02-28T02:33:44.357Z,0
2017-02-28T02:34:58.816Z,0
2017-02-28T02:36:13.264Z,0
2017-02-28T02:37:27.745Z,0
2017-02-28T02:38:42.206Z,0
2017-02-28T02:39:56.652Z,0
2017-02-28T02:41:11.120Z,0
2017-02-28T02:42:25.666Z,0
2017-02-28T02:43:39.540Z,0
2017-02-28T02:44:54.024Z,0
2017-02-28T02:46:07.873Z,0
2017-02-28T02:47:22.433Z,0
2017-02-28T02:48:35.069Z,0
2017-02-28T02:49:49.593Z,0
2017-02-28T02:51:03.412Z,0
2017-02-28T02:52:17.925Z,0
2017-02-28T02:53:31.723Z,0
2017-02-28T02:54:46.236Z,0
2017-02-28T02:56:00.732Z,0
2017-02-28T02:57:15.184Z,0
2017-02-28T02:58:29.005Z,0
2017-02-28T02:59:42.804Z,0
2017-02-28T03:00:56.604Z,0
2017-02-28T03:02:11.117Z,0
2017-02-28T03:03:25.627Z,0
2017-02-28T03:04:40.090Z,0
2017-02-28T03:05:54.542Z,0
2017-02-28T03:07:09.001Z,0
2017-02-28T03:08:23.464Z,0
2017-02-28T03:09:36.618Z,0
2017-02-28T03:10:51.119Z,0
2017-02-28T03:12:05.594Z,0
2017-02-28T03:13:20.029Z,0
2017-02-28T03:14:34.506Z,0
2017-02-28T03:15:48.978Z,0
2017-02-28T03:17:03.437Z,0
2017-02-28T03:18:17.876Z,0
2017-02-28T03:19:31.683Z,0
2017-02-28T03:20:46.173Z,0
2017-02-28T03:22:00.644Z,0
2017-02-28T03:23:15.103Z,0
2017-02-28T03:24:29.565Z,0
2017-02-28T03:25:44.028Z,0
2017-02-28T03:26:58.464Z,0
2017-02-28T03:28:12.915Z,0
2017-02-28T03:29:26.764Z,0
2017-02-28T03:30:41.228Z,0
2017-02-28T03:31:55.727Z,0
2017-02-28T03:33:10.221Z,0
2017-02-28T03:34:24.695Z,0
2017-02-28T03:35:39.165Z,0
2017-02-28T03:36:53.634Z,0
2017-02-28T03:38:08.131Z,0
2017-02-28T03:39:22.606Z,0
2017-02-28T03:40:36.437Z,0
2017-02-28T03:41:50.891Z,0
2017-02-28T03:43:05.356Z,0
2017-02-28T03:44:19.148Z,0
2017-02-28T03:45:32.325Z,0
2017-02-28T03:46:46.158Z,0
2017-02-28T03:48:00.595Z,0
2017-02-28T03:49:15.068Z,0
2017-02-28T03:50:28.852Z,0
2017-02-28T03:51:42.670Z,0
2017-02-28T03:52:57.125Z,0
2017-02-28T03:54:11.586Z,0
2017-02-28T03:55:26.054Z,0
2017-02-28T03:56:40.519Z,0
2017-02-28T03:57:54.982Z,0
2017-02-28T03:59:09.455Z,0
2017-02-28T04:00:23.927Z,0
2017-02-28T04:01:38.361Z,0
2017-02-28T04:02:52.825Z,0
2017-02-28T04:04:07.313Z,0
2017-02-28T04:05:21.130Z,0
2017-02-28T04:06:34.957Z,0
2017-02-28T04:07:49.400Z,0
2017-02-28T04:09:03.908Z,0
2017-02-28T04:10:18.378Z,0
2017-02-28T04:11:32.253Z,0
2017-02-28T04:12:46.716Z,0
2017-02-28T04:14:01.188Z,0
2017-02-28T04:15:15.711Z,0
2017-02-28T04:16:30.185Z,0
2017-02-28T04:17:44.016Z,0
2017-02-28T04:18:58.480Z,0
2017-02-28T04:20:12.256Z,0
2017-02-28T04:21:26.712Z,0
2017-02-28T04:22:41.162Z,0
2017-02-28T04:23:55.639Z,0
2017-02-28T04:25:10.092Z,0
2017-02-28T04:26:24.573Z,0
2017-02-28T04:27:39.033Z,0
2017-02-28T04:28:53.491Z,0
2017-02-28T04:30:07.987Z,0
2017-02-28T04:31:22.459Z,0
2017-02-28T04:32:36.905Z,0
2017-02-28T04:33:51.339Z,0
2017-02-28T04:35:05.199Z,0
2017-02-28T04:36:19.676Z,0
2017-02-28T04:37:34.171Z,0
2017-02-28T04:38:48.594Z,0
2017-02-28T04:40:03.075Z,0
2017-02-28T04:41:17.548Z,0
2017-02-28T04:42:31.982Z,0
2017-02-28T04:43:46.451Z,0
2017-02-28T04:45:00.916Z,0
2017-02-28T04:46:15.388Z,0
2017-02-28T04:47:29.824Z,0
2017-02-28T04:48:44.275Z,0
2017-02-28T04:49:58.792Z,0
2017-02-28T04:51:13.285Z,0
2017-02-28T04:52:27.771Z,0
2017-02-28T04:53:42.257Z,0
2017-02-28T04:54:56.722Z,0
2017-02-28T04:56:11.162Z,0
2017-02-28T04:57:24.980Z,0
2017-02-28T04:58:38.785Z,0
2017-02-28T04:59:53.218Z,0
2017-02-28T05:01:07.672Z,0
2017-02-28T05:02:22.119Z,0
2017-02-28T05:03:35.263Z,0
2017-02-28T05:04:49.716Z,0
2017-02-28T05:06:04.182Z,0
2017-02-28T05:07:18.644Z,0
2017-02-28T05:08:33.082Z,0
2017-02-28T05:09:47.550Z,0
2017-02-28T05:11:01.989Z,0
2017-02-28T05:12:16.452Z,0
2017-02-28T05:13:30.926Z,0
2017-02-28T05:14:45.411Z,0
2017-02-28T05:15:59.203Z,0
2017-02-28T05:17:13.020Z,0
2017-02-28T05:18:26.852Z,0
2017-02-28T05:19:41.284Z,0
2017-02-28T05:20:55.747Z,0
2017-02-28T05:22:09.584Z,0
2017-02-28T05:23:24.053Z,0
2017-02-28T05:24:38.521Z,0
2017-02-28T05:25:53.009Z,0
2017-02-28T05:27:06.795Z,0
2017-02-28T05:28:20.580Z,0
2017-02-28T05:29:35.057Z,0
2017-02-28T05:30:49.519Z,0
2017-02-28T05:32:03.979Z,0
2017-02-28T05:33:18.467Z,0
2017-02-28T05:34:32.297Z,0
2017-02-28T05:35:46.773Z,0
2017-02-28T05:37:01.243Z,0
2017-02-28T05:38:15.034Z,0
2017-02-28T05:39:29.472Z,0
2017-02-28T05:40:43.922Z,0
2017-02-28T05:41:57.721Z,0
2017-02-28T05:43:12.237Z,0
2017-02-28T05:44:26.722Z,0
2017-02-28T05:45:40.513Z,0
2017-02-28T05:46:54.939Z,0
2017-02-28T05:48:08.770Z,0
2017-02-28T05:49:23.197Z,0
2017-02-28T05:50:37.003Z,0
2017-02-28T05:51:51.478Z,0
2017-02-28T05:53:05.955Z,0
2017-02-28T05:54:20.416Z,0
2017-02-28T05:55:34.858Z,0
2017-02-28T05:56:48.664Z,0
2017-02-28T05:58:03.099Z,0
2017-02-28T05:59:16.893Z,0
2017-02-28T06:00:30.682Z,0
2017-02-28T06:01:45.149Z,0
2017-02-28T06:02:59.614Z,0
2017-02-28T06:04:14.074Z,0
2017-02-28T06:05:28.521Z,0
2017-02-28T06:06:42.965Z,0
2017-02-28T06:07:57.478Z,0
2017-02-28T06:09:11.953Z,0
2017-02-28T06:10:26.411Z,0
2017-02-28T06:11:40.842Z,0
2017-02-28T06:12:55.316Z,0
2017-02-28T06:14:09.129Z,0
2017-02-28T06:15:23.592Z,0
2017-02-28T06:16:38.035Z,0
2017-02-28T06:17:52.508Z,0
2017-02-28T06:19:06.966Z,0
2017-02-28T06:20:21.451Z,0
2017-02-28T06:21:35.905Z,0
2017-02-28T06:22:50.348Z,0
2017-02-28T06:24:04.857Z,0
2017-02-28T06:25:19.315Z,0
2017-02-28T06:26:33.127Z,0
2017-02-28T06:27:47.588Z,0
2017-02-28T06:29:02.042Z,0
2017-02-28T06:30:15.842Z,0
2017-02-28T06:31:30.303Z,0
2017-02-28T06:32:44.786Z,0
2017-02-28T06:33:59.239Z,0
2017-02-28T06:35:13.734Z,0
2017-02-28T06:36:27.534Z,0
2017-02-28T06:37:41.363Z,0
2017-02-28T06:38:55.837Z,0
2017-02-28T06:40:10.297Z,0
2017-02-28T06:41:24.740Z,0
2017-02-28T06:42:39.257Z,0
2017-02-28T06:43:53.720Z,0
2017-02-28T06:45:07.540Z,0
2017-02-28T06:46:21.375Z,0
2017-02-28T06:47:35.832Z,0
2017-02-28T06:48:49.676Z,0
2017-02-28T06:50:04.130Z,0
2017-02-28T06:51:17.954Z,0
2017-02-28T06:52:31.766Z,0
2017-02-28T06:53:46.174Z,0
2017-02-28T06:55:00.676Z,0
2017-02-28T06:56:15.152Z,0
2017-02-28T06:57:28.946Z,0
2017-02-28T06:58:43.461Z,0
2017-02-28T06:59:57.894Z,0
2017-02-28T07:01:12.364Z,0
2017-02-28T07:02:25.553Z,0
2017-02-28T07:03:39.354Z,0
2017-02-28T07:04:53.810Z,0
2017-02-28T07:06:08.281Z,0
2017-02-28T07:07:22.759Z,0
2017-02-28T07:08:36.603Z,0
2017-02-28T07:09:50.397Z,0
2017-02-28T07:11:04.845Z,0
2017-02-28T07:12:19.340Z,0
2017-02-28T07:13:33.786Z,0
2017-02-28T07:14:47.608Z,0
2017-02-28T07:16:02.073Z,0
2017-02-28T07:17:15.870Z,0
2017-02-28T07:18:30.306Z,0
2017-02-28T07:19:44.143Z,0
2017-02-28T07:20:58.643Z,0
2017-02-28T07:22:13.089Z,0
2017-02-28T07:23:27.568Z,0
2017-02-28T07:24:42.077Z,0
2017-02-28T07:25:56.564Z,0
2017-02-28T07:27:11.005Z,0
2017-02-28T07:28:24.796Z,0
2017-02-28T07:29:38.605Z,0
2017-02-28T07:30:53.131Z,0
2017-02-28T07:32:07.572Z,0
2017-02-28T07:33:22.073Z,0
2017-02-28T07:34:36.510Z,0
2017-02-28T07:35:50.317Z,0
2017-02-28T07:37:04.779Z,0
2017-02-28T07:38:19.278Z,0
2017-02-28T07:39:33.101Z,0
2017-02-28T07:40:47.568Z,0
2017-02-28T07:42:02.067Z,0
2017-02-28T07:43:16.535Z,0
2017-02-28T07:44:30.356Z,0
2017-02-28T07:45:44.161Z,0
2017-02-28T07:46:58.628Z,0
2017-02-28T07:48:13.091Z,0
2017-02-28T07:49:27.554Z,0
2017-02-28T07:50:42.007Z,0
2017-02-28T07:51:55.808Z,0
2017-02-28T07:53:10.248Z,0
2017-02-28T07:54:24.048Z,0
2017-02-28T07:55:38.553Z,0
2017-02-28T07:56:53.029Z,0
2017-02-28T07:58:07.507Z,0
2017-02-28T07:59:21.286Z,0
2017-02-28T08:00:35.740Z,0
2017-02-28T08:01:49.567Z,0
2017-02-28T08:03:04.047Z,0
2017-02-28T08:04:18.540Z,0
2017-02-28T08:05:32.344Z,0
2017-02-28T08:06:46.776Z,0
2017-02-28T08:08:01.232Z,0
2017-02-28T08:09:15.695Z,0
2017-02-28T08:10:30.239Z,0
2017-02-28T08:11:44.670Z,0
2017-02-28T08:12:59.142Z,0
2017-02-28T08:14:13.597Z,0
2017-02-28T08:15:28.062Z,0
2017-02-28T08:16:41.871Z,0
2017-02-28T08:17:55.662Z,0
2017-02-28T08:19:10.106Z,0
2017-02-28T08:20:23.948Z,0
2017-02-28T08:21:38.378Z,0
2017-02-28T08:22:52.187Z,0
2017-02-28T08:24:06.623Z,0
2017-02-28T08:25:21.074Z,0
2017-02-28T08:26:35.533Z,0
2017-02-28T08:27:48.728Z,0
2017-02-28T08:29:03.250Z,0
2017-02-28T08:30:17.723Z,0
2017-02-28T08:31:32.213Z,0
2017-02-28T08:32:46.024Z,0
2017-02-28T08:34:00.455Z,0
2017-02-28T08:35:14.917Z,0
2017-02-28T08:36:28.039Z,0
2017-02-28T08:37:41.894Z,0
2017-02-28T08:38:56.323Z,4
2017-02-28T08:40:10.799Z,4
2017-02-28T08:41:25.260Z,8
2017-02-28T08:42:39.673Z,8
2017-02-28T08:43:54.149Z,12
2017-02-28T08:45:07.954Z,16
2017-02-28T08:46:21.794Z,20
2017-02-28T08:47:35.597Z,32
2017-02-28T08:48:50.070Z,40
2017-02-28T08:50:04.548Z,60
2017-02-28T08:51:19.028Z,80
2017-02-28T08:52:33.462Z,104
2017-02-28T08:53:47.917Z,144
2017-02-28T08:55:02.341Z,184
2017-02-28T08:56:16.771Z,240
2017-02-28T08:57:31.248Z,304
2017-02-28T08:58:45.731Z,384
2017-02-28T09:00:00.178Z,480
2017-02-28T09:01:14.602Z,584
2017-02-28T09:02:29.063Z,704
2017-02-28T09:03:42.232Z,828
2017-02-28T09:04:56.029Z,960
2017-02-28T09:06:10.472Z,1096
2017-02-28T09:07:24.893Z,1248
2017-02-28T09:08:38.692Z,1412
2017-02-28T09:09:53.132Z,1596
2017-02-28T09:11:07.597Z,1792
2017-02-28T09:12:22.076Z,2012
2017-02-28T09:13:36.527Z,2276
2017-02-28T09:14:50.362Z,2556
2017-02-28T09:16:04.296Z,2844
2017-02-28T09:17:18.750Z,3148
2017-02-28T09:18:33.214Z,3448
2017-02-28T09:19:47.652Z,3732
2017-02-28T09:21:01.488Z,4136
2017-02-28T09:22:15.939Z,4416
2017-02-28T09:23:30.397Z,4720
2017-02-28T09:24:44.849Z,5216
2017-02-28T09:25:59.308Z,5776
2017-02-28T09:27:13.121Z,6180
2017-02-28T09:28:27.576Z,6744
2017-02-28T09:29:42.047Z,7456
2017-02-28T09:30:56.497Z,7988
2017-02-28T09:32:10.952Z,8456
2017-02-28T09:33:24.768Z,8528
2017-02-28T09:34:37.971Z,9752
2017-02-28T09:35:52.434Z,10104
2017-02-28T09:37:06.212Z,10692
2017-02-28T09:38:20.665Z,11436
2017-02-28T09:39:34.466Z,11752
2017-02-28T09:40:48.911Z,12464
2017-02-28T09:42:03.379Z,13836
2017-02-28T09:43:17.234Z,14080
2017-02-28T09:44:31.054Z,15264
2017-02-28T09:45:45.552Z,15936
2017-02-28T09:46:58.732Z,16416
2017-02-28T09:48:13.233Z,17792
2017-02-28T09:49:27.686Z,17472
2017-02-28T09:50:41.495Z,18624
2017-02-28T09:51:55.308Z,19936
2017-02-28T09:53:09.765Z,20256
2017-02-28T09:54:23.586Z,21504
2017-02-28T09:55:38.008Z,22144
2017-02-28T09:56:52.466Z,22912
2017-02-28T09:58:06.298Z,23456
2017-02-28T09:59:20.751Z,24128
2017-02-28T10:00:35.255Z,24800
2017-02-28T10:01:49.151Z,25696
2017-02-28T10:03:03.580Z,26816
2017-02-28T10:04:18.052Z,27360
2017-02-28T10:05:31.902Z,28320
2017-02-28T10:06:45.727Z,28928
2017-02-28T10:08:00.200Z,29984
2017-02-28T10:09:14.650Z,30848
2017-02-28T10:10:29.149Z,31168
2017-02-28T10:11:43.596Z,31936
2017-02-28T10:12:58.068Z,33600
2017-02-28T10:14:12.532Z,33376
2017-02-28T10:15:26.988Z,34432
2017-02-28T10:16:41.427Z,36064
2017-02-28T10:17:55.919Z,35776
2017-02-28T10:19:10.355Z,35616
2017-02-28T10:20:24.172Z,36288
2017-02-28T10:21:38.030Z,37632
2017-02-28T10:22:52.525Z,39264
2017-02-28T10:24:06.993Z,39296
2017-02-28T10:25:21.478Z,41248
2017-02-28T10:26:35.279Z,41792
2017-02-28T10:27:49.732Z,43552
2017-02-28T10:29:04.189Z,43968
2017-02-28T10:30:18.644Z,44352
2017-02-28T10:31:33.111Z,44192
2017-02-28T10:32:47.583Z,43200
2017-02-28T10:34:01.398Z,44352
2017-02-28T10:35:15.871Z,43936
2017-02-28T10:36:30.294Z,46272
2017-02-28T10:37:44.111Z,49024
2017-02-28T10:38:58.656Z,49216
2017-02-28T10:40:12.477Z,49568
2017-02-28T10:41:26.935Z,50016
2017-02-28T10:42:41.430Z,49632
2017-02-28T10:43:55.883Z,52000
2017-02-28T10:45:09.046Z,52800
2017-02-28T10:46:23.519Z,52960
2017-02-28T10:47:37.976Z,56928
2017-02-28T10:48:52.483Z,56640
2017-02-28T10:50:06.915Z,56608
2017-02-28T10:51:20.706Z,55200
2017-02-28T10:52:35.168Z,54144
2017-02-28T10:53:49.614Z,58016
2017-02-28T10:55:04.048Z,59392
2017-02-28T10:56:18.549Z,58432
2017-02-28T10:57:32.979Z,60576
2017-02-28T10:58:46.790Z,59168
2017-02-28T11:00:01.244Z,62432
2017-02-28T11:01:15.064Z,59232
2017-02-28T11:02:28.896Z,61280
2017-02-28T11:03:42.736Z,62944
2017-02-28T11:04:55.884Z,64256
2017-02-28T11:06:10.396Z,60928
2017-02-28T11:07:25.115Z,61440
2017-02-28T11:08:39.598Z,62176
2017-02-28T11:09:53.434Z,58208
2017-02-28T11:11:07.905Z,64416
2017-02-28T11:12:22.378Z,69568
2017-02-28T11:13:36.868Z,69248
2017-02-28T11:14:50.680Z,70240
2017-02-28T11:16:04.488Z,72480
2017-02-28T11:17:18.924Z,72416
2017-02-28T11:18:32.776Z,69728
2017-02-28T11:19:47.244Z,65024
2017-02-28T11:21:01.691Z,64224
2017-02-28T11:22:16.167Z,64128
2017-02-28T11:23:30.024Z,65088
2017-02-28T11:24:44.525Z,64704
2017-02-28T11:25:58.979Z,71264
2017-02-28T11:27:12.800Z,60160
2017-02-28T11:28:26.622Z,65440
2017-02-28T11:29:41.106Z,73696
2017-02-28T11:30:55.565Z,71968
2017-02-28T11:32:10.028Z,72352
2017-02-28T11:33:23.835Z,74240
2017-02-28T11:34:38.286Z,68256
2017-02-28T11:35:52.764Z,70912
2017-02-28T11:37:07.205Z,80960
2017-02-28T11:38:21.701Z,76416
2017-02-28T11:39:36.212Z,68896
2017-02-28T11:40:50.671Z,70464
2017-02-28T11:42:04.510Z,68448
2017-02-28T11:43:18.975Z,81056
2017-02-28T11:44:32.871Z,89440
2017-02-28T11:45:46.049Z,83616
2017-02-28T11:47:00.527Z,77120
2017-02-28T11:48:14.988Z,73888
2017-02-28T11:49:28.778Z,71232
2017-02-28T11:50:43.225Z,74560
2017-02-28T11:51:57.700Z,70624
2017-02-28T11:53:12.162Z,57504
2017-02-28T11:54:26.655Z,57920
2017-02-28T11:55:40.477Z,59808
2017-02-28T11:56:54.966Z,60096
2017-02-28T11:58:09.432Z,66304
2017-02-28T11:59:23.909Z,73792
2017-02-28T12:00:38.374Z,76128
2017-02-28T12:01:52.897Z,84992
2017-02-28T12:03:07.342Z,78368
2017-02-28T12:04:21.791Z,80480
2017-02-28T12:05:36.244Z,85344
2017-02-28T12:06:50.053Z,86848
2017-02-28T12:08:04.565Z,94240
2017-02-28T12:09:18.401Z,91232
2017-02-28T12:10:32.890Z,73824
2017-02-28T12:11:47.367Z,87392
2017-02-28T12:13:01.182Z,88896
2017-02-28T12:14:15.039Z,99584
2017-02-28T12:15:29.488Z,105984
2017-02-28T12:16:43.333Z,126560
2017-02-28T12:17:57.131Z,117568
2017-02-28T12:19:11.613Z,112192
2017-02-28T12:20:26.090Z,107264
2017-02-28T12:21:40.572Z,107840
2017-02-28T12:22:55.052Z,118336
2017-02-28T12:24:09.534Z,100320
2017-02-28T12:25:22.687Z,97536
2017-02-28T12:26:37.157Z,50912
2017-02-28T12:27:51.635Z,99648
2017-02-28T12:29:06.096Z,100608
2017-02-28T12:30:19.939Z,46592
2017-02-28T12:31:34.395Z,102816
2017-02-28T12:32:48.856Z,99296
2017-02-28T12:34:03.378Z,68736
2017-02-28T12:35:17.833Z,107392
2017-02-28T12:36:32.283Z,101472
2017-02-28T12:37:46.760Z,99808
2017-02-28T12:39:01.206Z,95808
2017-02-28T12:40:15.672Z,104416
2017-02-28T12:41:30.138Z,69472
2017-02-28T12:42:44.609Z,69856
2017-02-28T12:43:59.052Z,104160
2017-02-28T12:45:13.511Z,32640
2017-02-28T12:46:27.337Z,112384
2017-02-28T12:47:41.810Z,27136
2017-02-28T12:48:56.265Z,26432
2017-02-28T12:50:10.773Z,116832
2017-02-28T12:51:24.591Z,35328
2017-02-28T12:52:39.058Z,41824
2017-02-28T12:53:53.525Z,33600
2017-02-28T12:55:07.981Z,36800
2017-02-28T12:56:21.794Z,34432
2017-02-28T12:57:35.598Z,37824
2017-02-28T12:58:50.061Z,104928
2017-02-28T13:00:04.525Z,40000
2017-02-28T13:01:18.356Z,96832
2017-02-28T13:02:32.138Z,38880
2017-02-28T13:03:46.599Z,55392
2017-02-28T13:05:00.416Z,43936
2017-02-28T13:06:14.900Z,46464
2017-02-28T13:07:29.357Z,44576
2017-02-28T13:08:43.148Z,45344
2017-02-28T13:09:57.623Z,39168
2017-02-28T13:11:12.082Z,49824
2017-02-28T13:12:26.548Z,32000
2017-02-28T13:13:41.053Z,29920
2017-02-28T13:14:55.544Z,63840
2017-02-28T13:16:10.001Z,61984
2017-02-28T13:17:23.801Z,37408
2017-02-28T13:18:37.628Z,128832
2017-02-28T13:19:51.450Z,30016
2017-02-28T13:21:05.906Z,122720
2017-02-28T13:22:20.373Z,115104
2017-02-28T13:23:34.826Z,32928
2017-02-28T13:24:49.293Z,129280
2017-02-28T13:26:03.121Z,138784
2017-02-28T13:27:16.924Z,66464
2017-02-28T13:28:31.383Z,40544
2017-02-28T13:29:45.852Z,42208
2017-02-28T13:31:00.309Z,49536
2017-02-28T13:32:14.768Z,83520
2017-02-28T13:33:27.972Z,53312
2017-02-28T13:34:42.434Z,50656
2017-02-28T13:35:56.923Z,61856
2017-02-28T13:37:11.383Z,46912
2017-02-28T13:38:25.841Z,40096
2017-02-28T13:39:40.312Z,37440
2017-02-28T13:40:54.769Z,40000
2017-02-28T13:42:08.617Z,45888
2017-02-28T13:43:23.085Z,42048
2017-02-28T13:44:36.898Z,73440
2017-02-28T13:45:50.718Z,147904
2017-02-28T13:47:05.253Z,37440
2017-02-28T13:48:19.710Z,33120
2017-02-28T13:49:33.507Z,29920
2017-02-28T13:50:47.986Z,29376
2017-02-28T13:52:02.427Z,29888
2017-02-28T13:53:16.236Z,35200
2017-02-28T13:54:30.049Z,39392
2017-02-28T13:55:44.542Z,129280
2017-02-28T13:56:59.024Z,31552
2017-02-28T13:58:12.830Z,28960
2017-02-28T13:59:27.295Z,30528
2017-02-28T14:00:41.775Z,34464
2017-02-28T14:01:56.201Z,138336
2017-02-28T14:03:10.656Z,127328
2017-02-28T14:04:25.139Z,138944
2017-02-28T14:05:39.017Z,105504
2017-02-28T14:06:53.474Z,28160
2017-02-28T14:08:07.962Z,27456
2017-02-28T14:09:22.404Z,29984
2017-02-28T14:10:36.859Z,147680
2017-02-28T14:11:51.319Z,29632
2017-02-28T14:13:05.778Z,27264
2017-02-28T14:14:19.613Z,25504
2017-02-28T14:15:34.099Z,24832
2017-02-28T14:16:48.582Z,27552
2017-02-28T14:18:03.036Z,138272
2017-02-28T14:19:16.847Z,33728
2017-02-28T14:20:31.312Z,25696
2017-02-28T14:21:45.833Z,22656
2017-02-28T14:22:59.682Z,21536
2017-02-28T14:24:14.169Z,23616
2017-02-28T14:25:28.647Z,122048
2017-02-28T14:26:43.128Z,116096
2017-02-28T14:27:57.647Z,119744
2017-02-28T14:29:11.468Z,123264
2017-02-28T14:30:25.286Z,127264
2017-02-28T14:31:39.755Z,131136
2017-02-28T14:32:54.220Z,126688
2017-02-28T14:34:08.041Z,123616
2017-02-28T14:35:22.504Z,106976
2017-02-28T14:36:37.053Z,99968
2017-02-28T14:37:51.505Z,98496
2017-02-28T14:39:05.966Z,114784
2017-02-28T14:40:20.421Z,124896
2017-02-28T14:41:33.592Z,132128
2017-02-28T14:42:48.058Z,141312
2017-02-28T14:44:01.878Z,141664
2017-02-28T14:45:16.385Z,98720
2017-02-28T14:46:30.889Z,46272
2017-02-28T14:47:45.331Z,153472
2017-02-28T14:48:59.152Z,33984
2017-02-28T14:50:12.994Z,25504
2017-02-28T14:51:27.482Z,22304
2017-02-28T14:52:41.938Z,21056
2017-02-28T14:53:56.361Z,23776
2017-02-28T14:55:10.238Z,30688
2017-02-28T14:56:24.733Z,150208
2017-02-28T14:57:39.213Z,146976
2017-02-28T14:58:53.677Z,142400
2017-02-28T15:00:08.153Z,145152
2017-02-28T15:01:21.955Z,138880
2017-02-28T15:02:36.431Z,34848
2017-02-28T15:03:50.888Z,55392
2017-02-28T15:05:05.364Z,139200
2017-02-28T15:06:19.811Z,50848
2017-02-28T15:07:33.619Z,98880
2017-02-28T15:08:48.095Z,33632
2017-02-28T15:10:02.570Z,107744
2017-02-28T15:11:17.050Z,133504
2017-02-28T15:12:31.542Z,133504
2017-02-28T15:13:46.088Z,138848
2017-02-28T15:15:00.557Z,39488
2017-02-28T15:16:15.013Z,48224
2017-02-28T15:17:28.853Z,154432
2017-02-28T15:18:42.690Z,144928
2017-02-28T15:19:57.182Z,139520
2017-02-28T15:21:11.062Z,43200
2017-02-28T15:22:25.513Z,102496
2017-02-28T15:23:39.310Z,61792
2017-02-28T15:24:53.798Z,145984
2017-02-28T15:26:08.251Z,126080
2017-02-28T15:27:22.742Z,151104
2017-02-28T15:28:37.198Z,82464
2017-02-28T15:29:51.656Z,99840
2017-02-28T15:31:06.128Z,152736
2017-02-28T15:32:19.968Z,59872
2017-02-28T15:33:34.431Z,41280
2017-02-28T15:34:48.298Z,145728
2017-02-28T15:36:02.771Z,135424
2017-02-28T15:37:17.233Z,135456
2017-02-28T15:38:31.697Z,40352
2017-02-28T15:39:45.551Z,34240
2017-02-28T15:40:59.364Z,150432
2017-02-28T15:42:13.863Z,148032
2017-02-28T15:43:28.338Z,145152
2017-02-28T15:44:42.801Z,146528
2017-02-28T15:45:57.265Z,143520
2017-02-28T15:47:11.714Z,146176
2017-02-28T15:48:26.204Z,147648
2017-02-28T15:49:40.700Z,148448
2017-02-28T15:50:55.142Z,32224
2017-02-28T15:52:09.618Z,35296
2017-02-28T15:53:24.084Z,36192
2017-02-28T15:54:38.562Z,33824
2017-02-28T15:55:52.421Z,32480
2017-02-28T15:57:06.233Z,32320
2017-02-28T15:58:20.743Z,36096
2017-02-28T15:59:35.216Z,35776
2017-02-28T16:00:49.698Z,35456
2017-02-28T16:02:04.146Z,35424
2017-02-28T16:03:17.936Z,35872
2017-02-28T16:04:31.742Z,57312
2017-02-28T16:05:46.221Z,46304
2017-02-28T16:07:00.684Z,163360
2017-02-28T16:08:13.865Z,44192
2017-02-28T16:09:27.696Z,156576
2017-02-28T16:10:42.156Z,144928
2017-02-28T16:11:56.605Z,141984
2017-02-28T16:13:11.135Z,39648
2017-02-28T16:14:25.620Z,40224
2017-02-28T16:15:40.118Z,38560
2017-02-28T16:16:54.561Z,40576
2017-02-28T16:18:09.024Z,41952
2017-02-28T16:19:22.223Z,55040
2017-02-28T16:20:36.072Z,46560
2017-02-28T16:21:50.523Z,149728
2017-02-28T16:23:04.991Z,35776
2017-02-28T16:24:19.485Z,34816
2017-02-28T16:25:33.950Z,96640
2017-02-28T16:26:48.463Z,146688
2017-02-28T16:28:02.278Z,146336
2017-02-28T16:29:16.749Z,139392
2017-02-28T16:30:31.221Z,136096
2017-02-28T16:31:45.671Z,29088
2017-02-28T16:32:59.514Z,29600
2017-02-28T16:34:13.993Z,34240
2017-02-28T16:35:28.475Z,41568
2017-02-28T16:36:42.286Z,43392
2017-02-28T16:37:56.100Z,43936
2017-02-28T16:39:10.573Z,43712
2017-02-28T16:40:24.409Z,65376
2017-02-28T16:41:38.880Z,133952
2017-02-28T16:42:52.753Z,35552
2017-02-28T16:44:06.551Z,37888
2017-02-28T16:45:21.008Z,32960
2017-02-28T16:46:35.488Z,33120
2017-02-28T16:47:49.334Z,36960
2017-02-28T16:49:03.142Z,42944
2017-02-28T16:50:16.982Z,44544
2017-02-28T16:51:30.821Z,43136
2017-02-28T16:52:45.309Z,58144
2017-02-28T16:53:59.818Z,127488
2017-02-28T16:55:12.363Z,130048
2017-02-28T16:56:26.850Z,128256
2017-02-28T16:57:41.354Z,122720
2017-02-28T16:58:55.183Z,122560
2017-02-28T17:00:09.638Z,128800
2017-02-28T17:01:23.504Z,124896
2017-02-28T17:02:37.369Z,129600
2017-02-28T17:03:51.840Z,128576